KPZQ METAR Reports


Rogers City, Presque Isle County Airport, MI, United States (KPZQ) 45-24-25N 083-48-46W
Aug 08, 2022 - 12:41 PM EDT / 2022.08.08 1641 UTC
Wind: from the NNE (030 degrees) at 8 MPH (7 KT):0
Visibility: 2 1/2 mile(s):0
Sky conditions: overcast
Weather: drizzle
Temperature: 59 F (15 C)
Dew Point: 57 F (14 C)
Relative Humidity: 93%
Pressure (altimeter): 29.87 in. Hg (1011 hPa)
ob: KPZQ 081641Z AUTO 03007KT 2 1/2SM DZ OVC005 15/14 A2987 RMK AO2
cycle: 16

 

Rogers City METAR Meteogram

Weather Chart

Nearby METAR Reports

KPZQ - Rogers City, Michigan, USA
Distance from station: SSW 1mi, 2km
Updated: Mon, 08-Aug-2022 12:41pm EDT
Drizzle, Overcast
Drizzle, Overcast
 Wind from NNE
Wind: NNE 8 mph , 13 km/h
Temperature: 59°F , 15°C
Dew Point: 57°F , 14°C
Humidity: 94%
Barometer: 29.87 inHg , 1011.5 hPa
Summary: Drizzle
Clouds: Overcast
Visibility: 2 1/2 miles , 4 km
Cloud details: Overcast 500 ft
2022/08/08 16:41 KPZQ 081641Z AUTO 03007KT 2 1/2SM DZ OVC005 15/14 A2987 RMK AO2
KAPN - Alpena, Michigan, USA
Distance from station: SSE 27mi, 43km
Updated: Mon, 08-Aug-2022 12:54pm EDT
Rain, Mist, Overcast
Rain, Mist, Overcast
 Wind from N
Wind: N 7 mph , 11 km/h
Temperature: 64°F , 18°C
Dew Point: 64°F , 18°C
Humidity: 100%
Barometer: 29.83 inHg , 1010.2 hPa
Summary: Rain, Mist
Clouds: Overcast
Visibility: 1 3/4 miles , 2.8 km
Cloud details: Overcast 400 ft
2022/08/08 16:54 KAPN 081654Z AUTO 01006KT 1 3/4SM RA BR OVC004 18/18 A2983 RMK AO2 SLP100 P0018 T01830178
 
KSLH - Cheboygan, Michigan, USA
Distance from station: WNW 38mi, 61km
Updated: Mon, 08-Aug-2022 12:55pm EDT
Drizzle, Overcast
Drizzle, Overcast
 Wind from N
Wind: N 8 mph , 13 km/h
Temperature: 61°F , 16°C
Dew Point: 61°F , 16°C
Humidity: 100%
Barometer: 29.88 inHg , 1011.9 hPa
Summary: Drizzle
Clouds: Overcast
Visibility: 3 miles , 5 km
Cloud details: Overcast 600 ft
2022/08/08 16:55 KSLH 081655Z AUTO 35007KT 3SM DZ OVC006 16/16 A2988 RMK AO2
KDRM - Drummond Is, Michigan, USA
Distance from station: N 40mi, 65km
Updated: Mon, 08-Aug-2022 12:55pm EDT
Drizzle, Overcast
Drizzle, Overcast
 Wind from N
Wind: N 8 mph , 13 km/h
Temperature: 59°F , 15°C
Dew Point: 59°F , 15°C
Humidity: 100%
Barometer: 29.88 inHg , 1011.9 hPa
Summary: Drizzle
Clouds: Overcast
Visibility: 4 miles , 6 km
Cloud details: Mostly cloudy 700 ft
Overcast 1000 ft
2022/08/08 16:55 KDRM 081655Z AUTO 36007KT 4SM DZ BKN007 OVC010 15/15 A2988 RMK AO2 T01490149 P0005
 
KPLN - Pellston, Michigan, USA
Distance from station: WNW 49mi, 79km
Updated: Mon, 08-Aug-2022 12:54pm EDT
Light rain, Mist, Overcast
Light rain, Mist, Overcast
 Wind from NNE
Wind: NNE 14 mph , 22 km/h
Temperature: 63°F , 17°C
Dew Point: 61°F , 16°C
Humidity: 94%
Barometer: 29.90 inHg , 1012.5 hPa
Summary: Light rain, Mist
Clouds: Overcast
Visibility: 3 miles , 5 km
Cloud details: Mostly cloudy 800 ft
Mostly cloudy 1200 ft
Overcast 1600 ft
2022/08/08 16:54 KPLN 081654Z AUTO 02012KT 3SM -RA BR BKN008 BKN012 OVC016 17/16 A2990 RMK AO2 CIG 005V009 SLP124 P0001 T01720156
KMCD - Mackinac Island, Michigan, USA
Distance from station: NW 50mi, 80km
Updated: Mon, 08-Aug-2022 12:35pm EDT
Rain, Overcast
Rain, Overcast
 Wind from N
Wind: N 9 mph , 15 km/h
Temperature: 59°F , 15°C
Dew Point: 59°F , 15°C
Humidity: 100%
Barometer: 29.90 inHg , 1012.5 hPa
Summary: Rain
Clouds: Overcast
Visibility: 5 miles , 8 km
Cloud details: Overcast 300 ft
2022/08/08 16:35 KMCD 081635Z AUTO 01008KT 5SM RA OVC003 15/15 A2990 RMK AO2 T01510151 P0002